Time;durP1;ratioP1;P1;durP2;ratioP2;P2;SDS_P1;SDS_P2;PMS_P1;PMS_P2;Temp;Humidity;BMP_temperature;BMP_pressure;BME280_temperature;BME280_humidity;BME280_pressure;Samples;Min_cycle;Max_cycle;Signal;HPM_P1;HPM_P2
2022/11/20 00:00:17;;;;;;;22.63;20.10;;;6.40;99.90;;;;;;5033735;28;20455;-65
2022/11/20 00:02:44;;;;;;;25.47;19.63;;;6.40;99.90;;;;;;5035056;28;20463;-65
2022/11/20 00:05:12;;;;;;;27.37;19.73;;;6.30;99.90;;;;;;5033963;28;20482;-64
2022/11/20 00:07:38;;;;;;;26.40;20.97;;;6.30;99.90;;;;;;5033777;28;20502;-64
2022/11/20 00:10:06;;;;;;;33.70;21.43;;;6.20;99.90;;;;;;5033466;28;21002;-65
2022/11/20 00:12:33;;;;;;;70.23;24.30;;;6.20;99.90;;;;;;5035054;28;20796;-64
2022/11/20 00:14:59;;;;;;;61.10;23.30;;;6.20;99.90;;;;;;5035487;28;20482;-64
2022/11/20 00:17:26;;;;;;;39.13;23.20;;;6.20;99.90;;;;;;5035124;28;20522;-63
2022/11/20 00:19:53;;;;;;;42.30;22.40;;;6.20;99.90;;;;;;5035700;28;20507;-63
2022/11/20 00:22:21;;;;;;;187.37;27.40;;;6.20;99.90;;;;;;5035507;28;20460;-64
2022/11/20 00:24:47;;;;;;;270.27;26.57;;;6.20;99.90;;;;;;5033384;28;20939;-64
2022/11/20 00:27:14;;;;;;;62.77;23.50;;;6.10;99.90;;;;;;5036695;28;20464;-64
2022/11/20 00:29:41;;;;;;;29.20;21.27;;;6.10;99.90;;;;;;5037376;28;20471;-64
2022/11/20 00:32:07;;;;;;;35.13;21.47;;;6.10;99.90;;;;;;5037550;28;20509;-64
2022/11/20 00:34:34;;;;;;;110.00;22.50;;;6.10;99.90;;;;;;5037523;28;20456;-64
2022/11/20 00:37:00;;;;;;;67.87;21.70;;;6.20;99.90;;;;;;5037699;28;20460;-64
2022/11/20 00:39:28;;;;;;;48.73;20.63;;;6.20;99.90;;;;;;5037849;28;20451;-64
2022/11/20 00:41:55;;;;;;;38.77;20.17;;;6.20;99.90;;;;;;5037611;28;20452;-65
2022/11/20 00:44:22;;;;;;;31.03;19.47;;;6.30;99.90;;;;;;5037500;28;20865;-64
2022/11/20 00:46:48;;;;;;;30.33;21.23;;;6.30;99.90;;;;;;5037337;28;20529;-64
2022/11/20 00:49:15;;;;;;;26.83;18.90;;;6.30;99.90;;;;;;5037483;28;20471;-65
2022/11/20 00:51:42;;;;;;;46.20;21.20;;;6.40;99.90;;;;;;5037122;28;20939;-65
2022/11/20 00:54:08;;;;;;;36.77;19.47;;;6.40;99.90;;;;;;5037375;28;20458;-65
2022/11/20 00:56:36;;;;;;;38.73;20.40;;;6.50;99.90;;;;;;5037394;28;20476;-64
2022/11/20 00:59:03;;;;;;;41.97;18.43;;;6.50;99.90;;;;;;5037194;28;20444;-65
2022/11/20 01:01:30;;;;;;;210.37;22.40;;;6.50;99.90;;;;;;5037005;28;20460;-64
2022/11/20 01:03:59;;;;;;;143.20;22.50;;;6.40;99.90;;;;;;5037196;28;20459;-65
2022/11/20 01:06:28;;;;;;;58.63;19.47;;;6.40;99.90;;;;;;5036720;28;20472;-64
2022/11/20 01:08:57;;;;;;;27.40;18.60;;;6.40;99.90;;;;;;5037095;28;20525;-65
2022/11/20 01:11:25;;;;;;;81.27;20.57;;;6.40;99.90;;;;;;5037086;28;20460;-65
2022/11/20 01:13:54;;;;;;;22.17;18.67;;;6.40;99.90;;;;;;5037150;28;20456;-65
2022/11/20 01:16:23;;;;;;;21.40;17.03;;;6.40;99.90;;;;;;5036967;28;20881;-64
2022/11/20 01:18:52;;;;;;;32.97;20.10;;;6.40;99.90;;;;;;5036913;28;20506;-65
2022/11/20 01:21:21;;;;;;;23.63;16.90;;;6.40;99.90;;;;;;5036888;28;20451;-65
2022/11/20 01:23:49;;;;;;;41.13;18.00;;;6.40;99.90;;;;;;5036805;28;20440;-65
2022/11/20 01:26:18;;;;;;;45.40;18.70;;;6.40;99.90;;;;;;5036896;28;20498;-64
2022/11/20 01:28:45;;;;;;;29.83;18.50;;;6.40;99.90;;;;;;5036786;28;20480;-64
2022/11/20 01:31:15;;;;;;;84.07;18.60;;;6.40;99.90;;;;;;5036698;28;20860;-64
2022/11/20 01:33:44;;;;;;;47.93;19.23;;;6.40;99.90;;;;;;5036629;28;20819;-64
2022/11/20 01:36:11;;;;;;;52.73;18.80;;;6.40;99.90;;;;;;5036629;28;20521;-64
2022/11/20 01:38:38;;;;;;;123.70;20.60;;;6.30;99.90;;;;;;5035319;28;20452;-65
2022/11/20 01:41:05;;;;;;;250.30;25.63;;;6.30;99.90;;;;;;5036782;28;20459;-65
2022/11/20 01:43:31;;;;;;;110.60;23.30;;;6.20;99.90;;;;;;5036233;28;21007;-64
2022/11/20 01:46:16;;;;;;;127.57;22.90;;;6.10;99.90;;;;;;5036501;28;20476;-64
2022/11/20 01:48:49;;;;;;;108.63;21.07;;;6.10;99.90;;;;;;5036419;28;20460;-65
2022/11/20 01:51:21;;;;;;;40.87;18.53;;;6.10;99.90;;;;;;5036423;28;20444;-64
2022/11/20 01:53:49;;;;;;;49.27;19.73;;;6.10;99.90;;;;;;5036467;28;20436;-64
2022/11/20 01:56:16;;;;;;;105.03;19.23;;;6.00;99.90;;;;;;5036065;28;20984;-63
2022/11/20 01:58:49;;;;;;;145.47;22.10;;;6.00;99.90;;;;;;5036690;28;20491;-64
2022/11/20 02:01:17;;;;;;;31.07;18.17;;;6.00;99.90;;;;;;5036620;28;20440;-64
2022/11/20 02:03:45;;;;;;;99.43;20.03;;;6.00;99.90;;;;;;5036255;28;20455;-64
2022/11/20 02:06:17;;;;;;;45.53;19.23;;;6.00;99.90;;;;;;5036419;28;20476;-64
2022/11/20 02:08:44;;;;;;;63.30;19.70;;;6.00;99.90;;;;;;5036416;28;20440;-63
2022/11/20 02:11:12;;;;;;;39.87;17.10;;;6.10;99.90;;;;;;5035843;28;20943;-64
2022/11/20 02:13:44;;;;;;;47.77;17.97;;;6.10;99.90;;;;;;5037786;28;20448;-64
2022/11/20 02:16:22;;;;;;;67.27;17.20;;;6.10;99.90;;;;;;5054266;28;20479;-64
2022/11/20 02:18:50;;;;;;;27.60;15.80;;;6.10;99.90;;;;;;5053044;28;20439;-64
2022/11/20 02:21:27;;;;;;;30.63;17.40;;;6.20;99.90;;;;;;5054660;28;20466;-64
2022/11/20 02:24:09;;;;;;;34.30;15.93;;;6.20;99.90;;;;;;5054187;28;20876;-65
2022/11/20 02:26:41;;;;;;;19.00;15.57;;;6.20;99.90;;;;;;5042243;28;20547;-65
2022/11/20 02:29:08;;;;;;;19.43;16.33;;;6.20;99.90;;;;;;5036030;28;20460;-65
2022/11/20 02:31:39;;;;;;;17.70;16.00;;;6.20;99.90;;;;;;5036074;28;20452;-64
2022/11/20 02:34:05;;;;;;;16.77;15.10;;;6.20;99.90;;;;;;5035975;28;20456;-64
2022/11/20 02:36:34;;;;;;;15.40;13.97;;;6.20;99.90;;;;;;5035739;28;20530;-64
2022/11/20 02:39:01;;;;;;;17.07;15.47;;;6.30;99.90;;;;;;5035723;28;20452;-65
2022/11/20 02:41:36;;;;;;;17.23;15.67;;;6.40;99.90;;;;;;5035751;28;20455;-64
2022/11/20 02:44:04;;;;;;;18.43;16.53;;;6.40;99.90;;;;;;5035559;28;20439;-64
2022/11/20 02:46:31;;;;;;;14.40;13.20;;;6.40;99.90;;;;;;5035476;28;20472;-64
2022/11/20 02:48:57;;;;;;;14.37;13.07;;;6.40;99.90;;;;;;5034926;28;20464;-64
2022/11/20 02:51:24;;;;;;;13.83;12.53;;;6.40;99.90;;;;;;5035135;28;20501;-64
2022/11/20 02:53:51;;;;;;;14.40;13.10;;;6.40;99.90;;;;;;5035437;28;20490;-65
2022/11/20 02:56:18;;;;;;;13.67;12.33;;;6.50;99.90;;;;;;5035260;28;20471;-65
2022/11/20 02:58:47;;;;;;;12.37;11.30;;;6.50;99.90;;;;;;5035309;28;20505;-64
2022/11/20 03:01:13;;;;;;;13.80;12.60;;;6.50;99.90;;;;;;5035353;28;20506;-64
2022/11/20 03:03:40;;;;;;;11.80;10.80;;;6.50;99.90;;;;;;5035063;28;20482;-65
2022/11/20 03:06:07;;;;;;;10.07;9.27;;;6.50;99.90;;;;;;5034739;28;20847;-65
2022/11/20 03:08:34;;;;;;;10.43;9.60;;;6.50;99.90;;;;;;5035193;28;20459;-64
2022/11/20 03:11:04;;;;;;;8.83;8.07;;;6.50;99.90;;;;;;5035145;28;20537;-64
2022/11/20 03:13:31;;;;;;;9.73;8.83;;;6.50;99.90;;;;;;5035005;28;20432;-64
2022/11/20 03:15:59;;;;;;;8.80;7.90;;;6.50;99.90;;;;;;5034797;28;20499;-64
2022/11/20 03:18:28;;;;;;;8.13;7.43;;;6.50;99.90;;;;;;5034712;28;20547;-64
2022/11/20 03:20:58;;;;;;;7.27;6.63;;;6.50;99.90;;;;;;5034783;28;20502;-65
2022/11/20 03:23:25;;;;;;;8.60;7.47;;;6.50;99.90;;;;;;5034613;28;20452;-64
2022/11/20 03:25:51;;;;;;;6.93;6.30;;;6.50;99.90;;;;;;5034629;28;20476;-65
2022/11/20 03:28:18;;;;;;;6.63;6.03;;;6.50;99.90;;;;;;5034217;28;20452;-64
2022/11/20 03:30:44;;;;;;;6.60;6.10;;;6.50;99.90;;;;;;5034378;28;20483;-65
2022/11/20 03:33:12;;;;;;;6.50;5.97;;;6.50;99.90;;;;;;5034411;28;20451;-64
2022/11/20 03:35:39;;;;;;;5.50;5.10;;;6.50;99.90;;;;;;5034429;28;20483;-65
2022/11/20 03:38:06;;;;;;;5.37;4.97;;;6.50;99.90;;;;;;5034337;28;20526;-65
2022/11/20 03:40:35;;;;;;;5.40;5.00;;;6.50;99.90;;;;;;5034247;28;20452;-64
2022/11/20 03:43:02;;;;;;;5.00;4.50;;;6.50;99.90;;;;;;5034122;28;20543;-64
2022/11/20 03:45:28;;;;;;;5.27;4.87;;;6.50;99.90;;;;;;5034231;28;20979;-64
2022/11/20 03:47:55;;;;;;;7.50;5.43;;;6.50;99.90;;;;;;5034048;28;20452;-64
2022/11/20 03:50:23;;;;;;;6.23;4.60;;;6.50;99.90;;;;;;5034050;28;20526;-62
2022/11/20 03:52:49;;;;;;;4.33;4.03;;;6.50;99.90;;;;;;5033617;28;20526;-64
2022/11/20 03:55:16;;;;;;;4.83;4.43;;;6.50;99.90;;;;;;5033600;28;20483;-64
2022/11/20 03:57:43;;;;;;;4.80;4.40;;;6.40;99.90;;;;;;5033915;28;21010;-64
2022/11/20 04:00:11;;;;;;;4.73;4.30;;;6.40;99.90;;;;;;5033223;28;20994;-64
2022/11/20 04:02:37;;;;;;;6.20;5.60;;;6.40;99.90;;;;;;5033402;28;20456;-65
2022/11/20 04:05:05;;;;;;;4.77;4.37;;;6.40;99.90;;;;;;5033548;28;20984;-64
2022/11/20 04:07:35;;;;;;;5.93;5.40;;;6.40;99.90;;;;;;5033883;28;20510;-64
2022/11/20 04:10:02;;;;;;;5.30;4.90;;;6.50;99.90;;;;;;5033697;28;20515;-64
2022/11/20 04:12:32;;;;;;;5.07;4.70;;;6.50;99.90;;;;;;5034655;28;20838;-65
2022/11/20 04:14:58;;;;;;;5.80;5.27;;;6.40;99.90;;;;;;5033831;28;20476;-64
2022/11/20 04:17:26;;;;;;;5.57;5.13;;;6.40;99.90;;;;;;5033402;28;20847;-64
2022/11/20 04:19:52;;;;;;;4.63;4.30;;;6.40;99.90;;;;;;5033661;28;20448;-64
2022/11/20 04:22:19;;;;;;;4.87;4.57;;;6.50;99.90;;;;;;5033681;28;20456;-64
2022/11/20 04:24:47;;;;;;;5.43;4.93;;;6.50;99.90;;;;;;5033662;28;20456;-64
2022/11/20 04:27:13;;;;;;;5.60;5.20;;;6.50;99.90;;;;;;5033625;28;20455;-64
2022/11/20 04:29:40;;;;;;;11.10;5.13;;;6.50;99.90;;;;;;5033624;28;20452;-64
2022/11/20 04:32:07;;;;;;;5.23;4.93;;;6.50;99.90;;;;;;5033612;28;20455;-63
2022/11/20 04:34:33;;;;;;;4.90;4.60;;;6.50;99.90;;;;;;5033361;28;20908;-64
2022/11/20 04:37:02;;;;;;;4.83;4.53;;;6.60;99.90;;;;;;5033559;28;20452;-64
2022/11/20 04:39:28;;;;;;;4.90;4.60;;;6.60;99.90;;;;;;5033570;28;20459;-64
2022/11/20 04:44:37;;;;;;;5.33;4.40;;;6.50;99.90;;;;;;5032854;28;20436;-64
2022/11/20 04:47:03;;;;;;;5.43;5.03;;;6.60;99.90;;;;;;5033548;28;20447;-64
2022/11/20 04:49:31;;;;;;;4.93;4.53;;;6.60;99.90;;;;;;5033302;28;20935;-64
2022/11/20 04:51:57;;;;;;;5.50;5.00;;;6.60;99.90;;;;;;5033315;28;20464;-64
2022/11/20 04:54:25;;;;;;;4.80;4.50;;;6.60;99.90;;;;;;5033452;28;20463;-64
2022/11/20 04:56:51;;;;;;;5.20;4.80;;;6.70;99.90;;;;;;5033235;28;20479;-65
2022/11/20 04:59:19;;;;;;;5.40;5.00;;;6.60;99.90;;;;;;5033405;28;20498;-64
2022/11/20 05:01:46;;;;;;;4.83;4.50;;;6.60;99.90;;;;;;5033469;28;20452;-64
2022/11/20 05:04:13;;;;;;;4.90;4.60;;;6.60;99.90;;;;;;5033534;28;20459;-65
2022/11/20 05:06:39;;;;;;;4.97;4.67;;;6.70;99.90;;;;;;5033475;28;20476;-64
2022/11/20 05:09:06;;;;;;;5.03;4.63;;;6.70;99.90;;;;;;5033726;28;20448;-64
2022/11/20 05:11:33;;;;;;;4.80;4.50;;;6.70;99.90;;;;;;5033545;28;20480;-63
2022/11/20 05:14:00;;;;;;;6.03;5.03;;;6.60;99.90;;;;;;5037340;28;20463;-65
2022/11/20 05:16:28;;;;;;;5.70;5.10;;;6.60;99.90;;;;;;5036943;28;20978;-64
2022/11/20 05:18:56;;;;;;;4.90;4.50;;;6.70;99.90;;;;;;5037173;28;20455;-64
2022/11/20 05:21:23;;;;;;;5.00;4.53;;;6.60;99.90;;;;;;5037125;28;20792;-64
2022/11/20 05:23:50;;;;;;;4.90;4.60;;;6.60;99.90;;;;;;5037017;28;20459;-64
2022/11/20 05:26:19;;;;;;;7.00;5.10;;;6.60;99.90;;;;;;5036925;28;20472;-64
2022/11/20 05:28:46;;;;;;;4.83;4.43;;;6.60;99.90;;;;;;5050823;28;20470;-64
2022/11/20 05:31:15;;;;;;;5.50;4.97;;;6.60;99.90;;;;;;5054197;28;20475;-65
2022/11/20 05:33:45;;;;;;;5.57;5.20;;;6.60;99.90;;;;;;5054260;28;20448;-65
2022/11/20 05:36:13;;;;;;;4.83;4.43;;;6.70;99.90;;;;;;5036199;28;21029;-64
2022/11/20 05:38:40;;;;;;;4.67;4.40;;;6.70;99.90;;;;;;5036622;28;20502;-65
2022/11/20 05:41:08;;;;;;;4.53;4.07;;;6.70;99.90;;;;;;5036455;28;20452;-64
2022/11/20 05:43:36;;;;;;;4.50;4.20;;;6.60;99.90;;;;;;5036091;28;20939;-64
2022/11/20 05:46:03;;;;;;;5.13;4.80;;;6.60;99.90;;;;;;5036298;28;20476;-65
2022/11/20 05:48:30;;;;;;;5.50;5.00;;;6.70;99.90;;;;;;5036354;28;20510;-64
2022/11/20 05:50:59;;;;;;;4.80;4.40;;;6.70;99.90;;;;;;5035996;28;20808;-64
2022/11/20 05:53:26;;;;;;;4.57;4.27;;;6.70;99.90;;;;;;5035938;28;20460;-65
2022/11/20 05:55:59;;;;;;;5.40;5.00;;;6.70;99.90;;;;;;5036081;28;20471;-64
2022/11/20 05:58:27;;;;;;;4.90;4.30;;;6.70;99.90;;;;;;5036035;28;20459;-65
2022/11/20 06:00:53;;;;;;;4.70;4.40;;;6.70;99.90;;;;;;5036155;28;20785;-65
2022/11/20 06:03:20;;;;;;;5.03;4.33;;;6.70;99.90;;;;;;5036040;28;20452;-64
2022/11/20 06:05:47;;;;;;;4.87;4.37;;;6.70;99.90;;;;;;5035890;28;20836;-64
2022/11/20 06:08:15;;;;;;;4.87;4.57;;;6.70;99.90;;;;;;5036022;28;20451;-64
2022/11/20 06:10:42;;;;;;;4.43;4.03;;;6.70;99.90;;;;;;5036063;28;20479;-64
2022/11/20 06:13:08;;;;;;;4.40;4.10;;;6.70;99.90;;;;;;5036083;28;20452;-64
2022/11/20 06:15:35;;;;;;;4.50;4.30;;;6.70;99.90;;;;;;5036586;28;20476;-65
2022/11/20 06:18:01;;;;;;;4.77;4.47;;;6.70;99.90;;;;;;5036100;28;20506;-64
2022/11/20 06:20:28;;;;;;;4.97;4.67;;;6.80;99.90;;;;;;5035797;28;20452;-64
2022/11/20 06:22:55;;;;;;;4.67;4.27;;;6.70;99.90;;;;;;5036387;28;20521;-64
2022/11/20 06:25:23;;;;;;;4.90;4.60;;;6.70;99.90;;;;;;5034955;28;20499;-64
2022/11/20 06:27:49;;;;;;;5.13;4.73;;;6.70;99.90;;;;;;5035547;28;20490;-65
2022/11/20 06:30:17;;;;;;;4.37;4.07;;;6.80;99.90;;;;;;5035072;28;20947;-63
2022/11/20 06:32:44;;;;;;;4.63;4.33;;;6.80;99.90;;;;;;5035616;28;20847;-64
2022/11/20 06:35:11;;;;;;;5.77;4.60;;;6.80;99.90;;;;;;5035321;28;20472;-65
2022/11/20 06:37:38;;;;;;;4.80;4.40;;;6.80;99.90;;;;;;5035265;28;20456;-64
2022/11/20 06:40:06;;;;;;;4.40;3.90;;;6.80;99.90;;;;;;5035268;28;20452;-64
2022/11/20 06:42:34;;;;;;;4.57;4.27;;;6.90;99.90;;;;;;5035095;28;20816;-65
2022/11/20 06:45:01;;;;;;;4.40;4.10;;;6.80;99.90;;;;;;5035324;28;20480;-64
2022/11/20 06:47:28;;;;;;;4.20;3.90;;;6.90;99.90;;;;;;5035241;28;20455;-63
2022/11/20 06:49:54;;;;;;;4.43;4.10;;;6.80;99.90;;;;;;5035257;28;20463;-65
2022/11/20 06:52:21;;;;;;;4.70;4.50;;;6.90;99.90;;;;;;5034844;28;20480;-64
2022/11/20 06:54:48;;;;;;;4.90;4.60;;;6.90;99.90;;;;;;5035146;28;20491;-65
2022/11/20 06:57:14;;;;;;;4.13;3.73;;;6.90;99.90;;;;;;5036577;28;20816;-63
2022/11/20 06:59:42;;;;;;;4.40;3.60;;;6.90;99.90;;;;;;5034940;28;20997;-65
2022/11/20 07:02:10;;;;;;;4.73;4.10;;;6.90;99.90;;;;;;5035209;28;20444;-63
2022/11/20 07:04:37;;;;;;;4.00;3.80;;;6.90;99.90;;;;;;5035489;28;20449;-65
2022/11/20 07:07:04;;;;;;;3.80;3.60;;;6.90;99.90;;;;;;5036185;28;20455;-64
2022/11/20 07:09:30;;;;;;;3.50;3.30;;;6.90;99.90;;;;;;5035196;28;20451;-64
2022/11/20 07:11:57;;;;;;;3.60;3.40;;;6.90;99.90;;;;;;5035257;28;20480;-64
2022/11/20 07:14:23;;;;;;;3.70;3.43;;;6.90;99.90;;;;;;5034980;28;20480;-64
2022/11/20 07:16:51;;;;;;;2.70;2.60;;;7.00;99.90;;;;;;5034938;28;20472;-64
2022/11/20 07:19:18;;;;;;;2.83;2.73;;;7.00;99.90;;;;;;5034816;28;20452;-64
2022/11/20 07:21:45;;;;;;;2.80;2.60;;;7.00;99.90;;;;;;5034958;28;20473;-64
2022/11/20 07:24:12;;;;;;;3.00;2.80;;;7.10;99.90;;;;;;5034884;28;20455;-64
2022/11/20 07:26:38;;;;;;;2.77;2.57;;;7.20;99.90;;;;;;5034939;28;20559;-64
2022/11/20 07:29:05;;;;;;;4.50;2.73;;;7.20;99.90;;;;;;5045084;28;20463;-65
2022/11/20 07:31:32;;;;;;;2.20;2.10;;;7.30;99.90;;;;;;5048810;28;20533;-65
2022/11/20 07:34:00;;;;;;;3.07;2.87;;;7.30;99.90;;;;;;5045502;28;20478;-65
2022/11/20 07:36:26;;;;;;;2.53;2.43;;;7.40;99.90;;;;;;5034746;28;20472;-65
2022/11/20 07:38:54;;;;;;;3.43;3.23;;;7.40;99.90;;;;;;5034353;28;20462;-64
2022/11/20 07:41:20;;;;;;;2.60;2.40;;;7.50;99.90;;;;;;5034573;28;20448;-66
2022/11/20 07:43:47;;;;;;;2.23;2.13;;;7.60;99.90;;;;;;5035717;28;20452;-64
2022/11/20 07:46:14;;;;;;;2.27;2.07;;;7.60;99.90;;;;;;5034191;28;20476;-65
2022/11/20 07:48:40;;;;;;;4.53;2.10;;;7.70;99.90;;;;;;5034315;28;20855;-64
2022/11/20 07:51:09;;;;;;;2.17;2.07;;;7.80;99.90;;;;;;5034007;28;20501;-65
2022/11/20 07:53:35;;;;;;;2.13;2.10;;;7.80;99.90;;;;;;5033740;28;20464;-66
2022/11/20 07:56:02;;;;;;;2.70;2.53;;;7.90;99.90;;;;;;5033930;28;20864;-65
2022/11/20 07:58:30;;;;;;;2.80;2.70;;;7.90;99.90;;;;;;5034209;28;20462;-66
2022/11/20 08:00:56;;;;;;;2.00;1.90;;;7.90;99.90;;;;;;5034756;28;20451;-67
2022/11/20 08:03:23;;;;;;;2.47;2.23;;;7.90;99.90;;;;;;5034000;28;20452;-67
2022/11/20 08:05:50;;;;;;;2.53;2.33;;;7.90;99.90;;;;;;5033720;28;20471;-66
2022/11/20 08:08:18;;;;;;;2.43;2.33;;;7.90;99.90;;;;;;5033953;28;20506;-68
2022/11/20 08:10:45;;;;;;;2.30;2.20;;;7.90;99.90;;;;;;5033912;28;20462;-69
2022/11/20 08:15:56;;;;;;;2.83;2.63;;;7.90;99.90;;;;;;5033726;28;20459;-65
2022/11/20 08:18:22;;;;;;;2.90;2.70;;;7.90;99.90;;;;;;5033475;28;20985;-67
2022/11/20 08:20:49;;;;;;;2.93;2.70;;;8.00;99.90;;;;;;5033587;28;20491;-69
2022/11/20 08:23:17;;;;;;;3.00;2.80;;;8.00;99.90;;;;;;5033357;28;20962;-67
2022/11/20 08:25:44;;;;;;;3.07;2.87;;;8.10;99.90;;;;;;5033666;28;20525;-66
2022/11/20 08:28:10;;;;;;;3.77;3.53;;;8.20;99.90;;;;;;5033702;28;20451;-66
2022/11/20 08:30:38;;;;;;;3.50;3.30;;;8.30;99.90;;;;;;5033271;28;20936;-66
2022/11/20 08:33:06;;;;;;;3.53;3.27;;;8.30;99.90;;;;;;5033474;28;20490;-65
2022/11/20 08:35:35;;;;;;;4.63;4.30;;;8.40;99.90;;;;;;5033520;28;20472;-65
2022/11/20 08:38:02;;;;;;;4.10;3.80;;;8.30;99.90;;;;;;5033667;28;20456;-65
2022/11/20 08:40:30;;;;;;;4.10;3.80;;;8.30;99.90;;;;;;5033367;28;20459;-64
2022/11/20 08:42:57;;;;;;;3.47;3.17;;;8.30;99.90;;;;;;5033878;28;20502;-65
2022/11/20 08:45:24;;;;;;;2.90;2.70;;;8.40;99.90;;;;;;5033423;28;20480;-65
2022/11/20 08:47:50;;;;;;;4.20;3.30;;;8.40;99.90;;;;;;5035847;28;20864;-66
2022/11/20 08:50:18;;;;;;;4.80;2.40;;;8.30;99.90;;;;;;5037572;28;20459;-64
2022/11/20 08:52:45;;;;;;;2.90;2.60;;;8.30;99.90;;;;;;5037302;28;20860;-66
2022/11/20 08:55:12;;;;;;;2.67;2.57;;;8.30;99.90;;;;;;5037361;28;20975;-66
2022/11/20 08:57:40;;;;;;;2.97;2.67;;;8.30;99.90;;;;;;5037351;28;21010;-66
2022/11/20 09:00:10;;;;;;;2.07;1.87;;;8.40;99.90;;;;;;5037894;28;20898;-66
2022/11/20 09:02:37;;;;;;;1.80;1.80;;;8.30;99.90;;;;;;5037250;28;20490;-67
2022/11/20 09:05:04;;;;;;;1.80;1.80;;;8.30;99.90;;;;;;5037838;28;20541;-66
2022/11/20 09:07:31;;;;;;;1.40;1.40;;;8.30;99.90;;;;;;5037309;28;20983;-65
2022/11/20 09:09:58;;;;;;;1.20;1.20;;;8.40;99.90;;;;;;5037257;28;20518;-65
2022/11/20 09:12:25;;;;;;;1.43;1.33;;;8.40;99.90;;;;;;5040464;28;20543;-66
2022/11/20 09:14:53;;;;;;;1.30;1.30;;;8.40;99.90;;;;;;5037779;28;20460;-66
2022/11/20 09:17:20;;;;;;;1.27;1.27;;;8.40;99.90;;;;;;5037593;28;20506;-67
2022/11/20 09:19:47;;;;;;;1.10;1.10;;;8.40;99.90;;;;;;5037362;28;20483;-66
2022/11/20 09:22:14;;;;;;;1.07;1.07;;;8.40;99.90;;;;;;5037258;28;20454;-66
2022/11/20 09:24:41;;;;;;;1.30;1.30;;;8.40;99.90;;;;;;5036905;28;20464;-66
2022/11/20 09:27:08;;;;;;;1.30;1.20;;;8.30;99.90;;;;;;5036782;28;20915;-66
2022/11/20 09:29:34;;;;;;;1.20;1.20;;;8.30;99.90;;;;;;5036794;28;20940;-65
2022/11/20 09:32:02;;;;;;;1.27;1.27;;;8.30;99.90;;;;;;5037060;28;20467;-66
2022/11/20 09:34:29;;;;;;;0.90;0.90;;;8.30;99.90;;;;;;5037106;28;20863;-66
2022/11/20 09:36:56;;;;;;;1.20;1.20;;;8.30;99.90;;;;;;5037154;28;20530;-66
2022/11/20 09:39:22;;;;;;;1.37;1.37;;;8.30;99.90;;;;;;5037025;28;20517;-65
2022/11/20 09:42:12;;;;;;;1.07;1.07;;;8.30;99.90;;;;;;5037220;28;20451;-66
2022/11/20 09:44:52;;;;;;;0.90;0.90;;;8.30;99.90;;;;;;5036964;28;20456;-65
2022/11/20 09:47:32;;;;;;;1.30;1.20;;;8.30;99.90;;;;;;5036944;28;20436;-66
2022/11/20 09:50:13;;;;;;;0.90;0.90;;;8.30;99.90;;;;;;5036793;28;20446;-66
2022/11/20 09:52:55;;;;;;;0.90;0.90;;;8.30;99.90;;;;;;5036542;28;20490;-66
2022/11/20 09:55:22;;;;;;;1.30;1.30;;;8.30;99.90;;;;;;5036691;28;20472;-65
2022/11/20 09:57:52;;;;;;;2.77;1.53;;;8.40;99.90;;;;;;5036294;28;20460;-65
2022/11/20 10:00:21;;;;;;;1.10;1.10;;;8.40;99.90;;;;;;5038152;28;20440;-65
2022/11/20 10:02:54;;;;;;;0.93;0.93;;;8.50;99.90;;;;;;5036449;28;20452;-67
2022/11/20 10:05:26;;;;;;;1.50;1.50;;;8.40;99.90;;;;;;5036549;28;20480;-66
2022/11/20 10:08:13;;;;;;;1.13;1.13;;;8.40;99.90;;;;;;5036576;28;20444;-68
2022/11/20 10:10:44;;;;;;;1.43;1.43;;;8.30;99.90;;;;;;5046023;28;20442;-66
2022/11/20 10:13:30;;;;;;;1.50;1.50;;;8.30;99.90;;;;;;5051080;28;20460;-66
2022/11/20 10:16:10;;;;;;;1.50;1.50;;;8.30;99.90;;;;;;5048365;28;20841;-67
2022/11/20 10:18:49;;;;;;;1.30;1.20;;;8.30;99.90;;;;;;5046802;28;20444;-67
2022/11/20 10:21:26;;;;;;;1.43;1.33;;;8.40;99.90;;;;;;5047904;28;20504;-67
2022/11/20 10:24:16;;;;;;;2.83;2.20;;;8.40;99.90;;;;;;5039995;28;20447;-68
2022/11/20 10:26:53;;;;;;;1.33;1.33;;;8.40;99.90;;;;;;5036307;28;20530;-67
2022/11/20 10:29:23;;;;;;;1.20;1.20;;;8.40;99.90;;;;;;5036646;28;20444;-68
2022/11/20 10:31:55;;;;;;;1.30;1.30;;;8.30;99.90;;;;;;5035857;28;20534;-67
2022/11/20 10:34:27;;;;;;;1.60;1.30;;;8.30;99.90;;;;;;5039568;28;20436;-67
2022/11/20 10:36:57;;;;;;;1.20;1.20;;;8.30;99.90;;;;;;5048446;28;20475;-67
2022/11/20 10:39:33;;;;;;;1.60;1.50;;;8.30;99.90;;;;;;5049419;28;20483;-67
2022/11/20 10:42:01;;;;;;;1.60;1.10;;;8.40;99.90;;;;;;5050031;28;20435;-68
2022/11/20 10:47:15;;;;;;;1.40;1.40;;;8.50;99.90;;;;;;5041995;28;20512;-67
2022/11/20 10:49:46;;;;;;;1.10;1.00;;;8.50;99.90;;;;;;5036185;28;21023;-68
2022/11/20 10:52:20;;;;;;;1.57;1.47;;;8.40;99.90;;;;;;5035575;28;20476;-67
2022/11/20 10:54:53;;;;;;;1.60;1.50;;;8.30;99.90;;;;;;5036034;28;20440;-68
2022/11/20 10:57:32;;;;;;;1.37;1.27;;;8.30;99.90;;;;;;5036650;28;20510;-67
2022/11/20 11:00:04;;;;;;;2.50;2.40;;;8.20;99.90;;;;;;5035437;28;20490;-67
2022/11/20 11:02:40;;;;;;;3.67;1.60;;;8.10;99.90;;;;;;5035497;28;20490;-67
2022/11/20 11:05:18;;;;;;;2.77;2.23;;;8.10;99.90;;;;;;5035245;28;20494;-65
2022/11/20 11:07:46;;;;;;;2.27;2.20;;;8.10;99.90;;;;;;5035200;28;20447;-68
2022/11/20 11:10:17;;;;;;;3.10;2.90;;;8.10;99.90;;;;;;5034301;28;20997;-68
2022/11/20 11:12:46;;;;;;;3.07;2.87;;;8.10;99.90;;;;;;5034981;28;20885;-68
2022/11/20 11:15:25;;;;;;;4.70;3.40;;;8.20;99.90;;;;;;5035000;28;20507;-68
2022/11/20 11:17:52;;;;;;;3.27;3.07;;;8.20;99.90;;;;;;5034930;28;20447;-68
2022/11/20 11:20:22;;;;;;;2.97;2.87;;;8.30;99.90;;;;;;5035187;28;20463;-67
2022/11/20 11:22:50;;;;;;;3.37;3.17;;;8.40;99.90;;;;;;5035924;28;20456;-68
2022/11/20 11:25:26;;;;;;;2.27;2.17;;;8.40;99.90;;;;;;5035080;28;20471;-67
2022/11/20 11:27:54;;;;;;;3.43;3.13;;;8.50;99.90;;;;;;5035306;28;20436;-68
2022/11/20 11:30:21;;;;;;;2.20;2.10;;;8.50;99.90;;;;;;5035072;28;20456;-68
2022/11/20 11:32:48;;;;;;;3.37;3.10;;;8.60;99.90;;;;;;5035411;28;20461;-68
2022/11/20 11:35:25;;;;;;;6.57;4.30;;;8.80;99.90;;;;;;5035530;28;20595;-67
2022/11/20 11:37:54;;;;;;;3.00;2.80;;;9.30;99.90;;;;;;5035171;28;20439;-68
2022/11/20 11:40:23;;;;;;;2.60;2.50;;;9.60;99.90;;;;;;5035037;28;20521;-69
2022/11/20 11:42:55;;;;;;;3.07;2.10;;;9.90;99.90;;;;;;5035090;28;20483;-68
2022/11/20 11:45:22;;;;;;;2.80;2.60;;;10.10;99.90;;;;;;5035376;28;20498;-69
2022/11/20 11:47:49;;;;;;;2.47;2.27;;;10.30;99.90;;;;;;5036103;28;20456;-69
2022/11/20 11:50:18;;;;;;;2.93;2.73;;;10.40;99.90;;;;;;5035535;28;21005;-67
2022/11/20 11:52:52;;;;;;;2.60;2.40;;;10.40;99.90;;;;;;5033997;28;20511;-67
2022/11/20 11:55:30;;;;;;;2.23;2.00;;;10.50;99.90;;;;;;5033900;28;20974;-68
2022/11/20 11:58:06;;;;;;;2.33;2.13;;;10.60;99.90;;;;;;5034297;28;20808;-67
2022/11/20 12:00:34;;;;;;;3.90;2.87;;;10.80;99.90;;;;;;5034117;28;20440;-67
2022/11/20 12:03:09;;;;;;;8.67;7.13;;;11.00;99.90;;;;;;5035199;28;20448;-67
2022/11/20 12:05:42;;;;;;;2.53;2.10;;;11.10;99.90;;;;;;5035960;28;20864;-66
2022/11/20 12:08:19;;;;;;;2.70;2.13;;;11.00;99.90;;;;;;5035507;28;20436;-67
2022/11/20 12:10:49;;;;;;;2.63;1.97;;;10.90;99.90;;;;;;5035245;28;20439;-67
2022/11/20 12:13:25;;;;;;;3.80;2.40;;;10.80;99.90;;;;;;5035645;28;20612;-68
2022/11/20 12:15:53;;;;;;;5.03;2.00;;;10.80;99.90;;;;;;5035565;28;20529;-71
2022/11/20 12:18:22;;;;;;;2.87;2.07;;;10.90;99.90;;;;;;5036150;28;20861;-67
2022/11/20 12:20:59;;;;;;;4.07;2.53;;;10.90;99.90;;;;;;5036793;28;20463;-67
2022/11/20 12:23:33;;;;;;;3.10;2.47;;;11.00;99.90;;;;;;5034950;28;20493;-68
2022/11/20 12:26:06;;;;;;;1.70;1.33;;;11.20;99.90;;;;;;5035319;28;20841;-67
2022/11/20 12:28:45;;;;;;;2.73;2.50;;;11.30;99.90;;;;;;5038398;28;20472;-67
2022/11/20 12:31:39;;;;;;;4.43;4.03;;;11.20;99.90;;;;;;5034282;28;20974;-66
2022/11/20 12:34:21;;;;;;;2.40;2.30;;;11.00;99.90;;;;;;5033960;28;20804;-67
2022/11/20 12:36:55;;;;;;;1.70;1.57;;;10.90;99.90;;;;;;5033619;28;20999;-67
2022/11/20 12:39:41;;;;;;;3.33;2.03;;;10.90;99.90;;;;;;5033891;28;20864;-67
2022/11/20 12:45:43;;;;;;;2.37;1.30;;;10.80;99.90;;;;;;5030832;28;20518;-67
2022/11/20 12:48:37;;;;;;;1.63;1.50;;;10.80;99.90;;;;;;5034931;28;20958;-66
2022/11/20 12:51:22;;;;;;;2.70;1.97;;;10.90;99.90;;;;;;5035261;28;20486;-66
2022/11/20 12:54:05;;;;;;;3.27;1.43;;;10.80;99.90;;;;;;5035278;28;20464;-67
2022/11/20 12:56:42;;;;;;;1.90;1.63;;;10.80;99.90;;;;;;5035372;28;20534;-67
2022/11/20 12:59:28;;;;;;;1.83;1.60;;;10.80;99.90;;;;;;5034433;28;20436;-68
2022/11/20 13:01:59;;;;;;;1.00;0.90;;;10.80;99.90;;;;;;5034860;28;20489;-67
2022/11/20 13:04:44;;;;;;;1.80;1.20;;;10.90;99.90;;;;;;5034883;28;20843;-67
2022/11/20 13:07:14;;;;;;;1.30;1.10;;;11.10;99.90;;;;;;5033578;28;20467;-66
2022/11/20 13:09:46;;;;;;;2.20;1.37;;;11.20;99.90;;;;;;5033550;28;20455;-67
2022/11/20 13:12:20;;;;;;;1.60;1.30;;;11.20;99.90;;;;;;5033335;28;20444;-67